Time;durP1;ratioP1;P1;durP2;ratioP2;P2;SDS_P1;SDS_P2;PMS_P1;PMS_P2;Temp;Humidity;BMP_temperature;BMP_pressure;BME280_temperature;BME280_humidity;BME280_pressure;Samples;Min_cycle;Max_cycle;Signal;HPM_P1;HPM_P2
2024/05/01 00:01:41;;;;;;;15.60;6.45;;;16.50;99.90;;;;;;5319335;27;19997;-76
2024/05/01 00:04:06;;;;;;;18.45;8.57;;;16.50;99.90;;;;;;5322895;27;20005;-74
2024/05/01 00:06:32;;;;;;;17.58;7.15;;;16.40;99.90;;;;;;5321812;27;20359;-73
2024/05/01 00:09:00;;;;;;;14.57;7.38;;;16.20;99.90;;;;;;5313646;27;20010;-75
2024/05/01 00:11:25;;;;;;;23.58;7.70;;;15.90;99.90;;;;;;5283385;27;20029;-75
2024/05/01 00:13:51;;;;;;;18.80;6.18;;;15.70;99.90;;;;;;5314041;27;20013;-75
2024/05/01 00:16:19;;;;;;;17.33;6.38;;;15.70;99.90;;;;;;5313032;27;20009;-74
2024/05/01 00:18:47;;;;;;;19.83;6.45;;;15.60;99.90;;;;;;5312437;27;19998;-74
2024/05/01 00:21:13;;;;;;;18.73;5.95;;;15.50;99.90;;;;;;5315093;27;20463;-75
2024/05/01 00:23:41;;;;;;;18.05;6.13;;;15.40;99.90;;;;;;5316378;27;20005;-75
2024/05/01 00:26:06;;;;;;;16.20;6.53;;;15.40;99.90;;;;;;5297887;27;20063;-73
2024/05/01 00:28:32;;;;;;;11.77;6.05;;;15.20;99.90;;;;;;5322958;27;19997;-73
2024/05/01 00:30:58;;;;;;;19.90;7.60;;;15.20;99.90;;;;;;5287766;27;20002;-73
2024/05/01 00:33:24;;;;;;;16.63;8.45;;;15.20;99.90;;;;;;5321075;27;20027;-73
2024/05/01 00:35:49;;;;;;;21.02;8.30;;;15.20;99.90;;;;;;5316961;27;19994;-72
2024/05/01 00:38:15;;;;;;;21.10;7.97;;;15.20;99.90;;;;;;5286773;27;20416;-72
2024/05/01 00:40:47;;;;;;;20.27;7.18;;;15.30;99.90;;;;;;5315989;27;19993;-74
2024/05/01 00:43:13;;;;;;;18.15;7.72;;;15.30;99.90;;;;;;5319457;27;20398;-75
2024/05/01 00:45:38;;;;;;;23.55;7.97;;;15.50;99.90;;;;;;5295714;27;20008;-72
2024/05/01 00:48:07;;;;;;;20.30;7.88;;;15.50;99.90;;;;;;5322838;27;20002;-73
2024/05/01 00:50:33;;;;;;;11.82;6.20;;;15.60;99.90;;;;;;5318176;27;20041;-70
2024/05/01 00:53:02;;;;;;;12.80;5.90;;;15.60;99.90;;;;;;5315187;27;20076;-74
2024/05/01 00:55:30;;;;;;;18.95;7.00;;;15.70;99.90;;;;;;5315822;27;20010;-73
2024/05/01 00:57:58;;;;;;;18.63;7.72;;;15.60;99.90;;;;;;5319754;27;20151;-74
2024/05/01 01:00:23;;;;;;;21.58;7.18;;;15.70;99.90;;;;;;5320382;27;20002;-72
2024/05/01 01:02:52;;;;;;;16.10;6.78;;;15.70;99.90;;;;;;5318296;27;20027;-75
2024/05/01 01:05:18;;;;;;;22.40;7.50;;;15.90;99.90;;;;;;5316072;27;20032;-73
2024/05/01 01:07:44;;;;;;;22.52;7.05;;;15.90;99.90;;;;;;5285990;27;20301;-74
2024/05/01 01:10:10;;;;;;;15.30;6.90;;;15.90;99.90;;;;;;5316986;27;19998;-72
2024/05/01 01:12:36;;;;;;;22.80;7.38;;;16.00;99.90;;;;;;5288199;27;20005;-73
2024/05/01 01:15:03;;;;;;;17.45;6.85;;;16.10;99.90;;;;;;5322923;27;19997;-74
2024/05/01 01:17:29;;;;;;;21.73;7.05;;;16.10;99.90;;;;;;5316875;27;19997;-76
2024/05/01 01:19:54;;;;;;;23.70;7.00;;;16.10;99.90;;;;;;5317828;27;20012;-74
2024/05/01 01:22:20;;;;;;;20.45;6.35;;;16.30;99.90;;;;;;5315460;27;20013;-76
2024/05/01 01:24:49;;;;;;;13.35;6.50;;;16.30;99.90;;;;;;5318583;27;20477;-73
2024/05/01 01:27:17;;;;;;;15.65;6.70;;;16.20;99.90;;;;;;5314128;26;20005;-75
2024/05/01 01:29:42;;;;;;;15.73;6.88;;;16.10;99.90;;;;;;5315522;27;20026;-73
2024/05/01 01:32:08;;;;;;;22.17;6.35;;;16.00;99.90;;;;;;5314489;26;20009;-75
2024/05/01 01:34:34;;;;;;;14.00;6.47;;;16.00;99.90;;;;;;5315258;27;20082;-75
2024/05/01 01:36:59;;;;;;;19.15;6.20;;;16.00;99.90;;;;;;5286812;27;20013;-72
2024/05/01 01:39:25;;;;;;;8.88;4.05;;;16.00;99.90;;;;;;5287677;27;20013;-73
2024/05/01 01:41:51;;;;;;;15.40;6.10;;;16.00;99.90;;;;;;5315151;27;20005;-73
2024/05/01 01:44:16;;;;;;;15.32;5.05;;;16.10;99.90;;;;;;5314543;27;20002;-71
2024/05/01 01:46:42;;;;;;;18.58;5.05;;;16.00;99.90;;;;;;5284340;27;20009;-70
2024/05/01 01:49:08;;;;;;;20.55;4.95;;;15.80;99.90;;;;;;5284748;27;20055;-73
2024/05/01 01:51:33;;;;;;;11.80;3.97;;;15.60;99.90;;;;;;5314291;27;20017;-74
2024/05/01 01:53:59;;;;;;;13.23;4.47;;;15.60;99.90;;;;;;5314915;27;20012;-73
2024/05/01 01:56:25;;;;;;;16.90;4.25;;;15.40;99.90;;;;;;5315233;27;20009;-73
2024/05/01 01:58:50;;;;;;;15.20;5.30;;;15.30;99.90;;;;;;5315005;27;20022;-73
2024/05/01 02:01:16;;;;;;;15.68;5.00;;;15.30;99.90;;;;;;5314798;27;20006;-72
2024/05/01 02:03:53;;;;;;;15.02;5.28;;;15.20;99.90;;;;;;5315278;27;20333;-73
2024/05/01 02:06:19;;;;;;;15.88;4.13;;;15.30;99.90;;;;;;5317888;27;20024;-71
2024/05/01 02:08:44;;;;;;;11.65;4.38;;;15.40;99.90;;;;;;5316296;27;20001;-73
2024/05/01 02:11:11;;;;;;;15.50;5.63;;;15.50;99.90;;;;;;5314917;27;20499;-73
2024/05/01 02:13:39;;;;;;;19.63;5.03;;;15.50;99.90;;;;;;5314494;27;19994;-71
2024/05/01 02:16:09;;;;;;;14.15;4.28;;;15.40;99.90;;;;;;5314587;27;20008;-72
2024/05/01 02:18:37;;;;;;;15.40;4.60;;;15.50;99.90;;;;;;5314246;27;20531;-73
2024/05/01 02:21:03;;;;;;;16.02;4.40;;;15.60;99.90;;;;;;5285963;27;20409;-79
2024/05/01 02:23:31;;;;;;;11.60;4.55;;;15.60;99.90;;;;;;5314867;26;19993;-74
2024/05/01 02:25:56;;;;;;;16.88;4.68;;;15.70;99.90;;;;;;5318854;27;20013;-74
2024/05/01 02:28:24;;;;;;;14.90;4.55;;;15.60;99.90;;;;;;5326985;27;20020;-73
2024/05/01 02:30:52;;;;;;;22.17;5.32;;;15.40;99.90;;;;;;5288586;27;20006;-73
2024/05/01 02:33:20;;;;;;;14.40;4.82;;;15.30;99.90;;;;;;5315421;26;20472;-74
2024/05/01 02:35:48;;;;;;;15.10;4.15;;;15.20;99.90;;;;;;5325289;27;20005;-74
2024/05/01 02:38:14;;;;;;;15.07;4.32;;;15.20;99.90;;;;;;5323009;27;20020;-73
2024/05/01 02:40:40;;;;;;;16.30;5.30;;;15.10;99.90;;;;;;5318113;27;20002;-73
2024/05/01 02:43:05;;;;;;;17.10;5.95;;;15.00;99.90;;;;;;5291253;27;20520;-73
2024/05/01 02:45:31;;;;;;;11.23;5.28;;;15.00;99.90;;;;;;5284687;27;20010;-71
2024/05/01 02:47:57;;;;;;;15.50;5.82;;;15.10;99.90;;;;;;5283625;27;20004;-70
2024/05/01 02:50:22;;;;;;;14.20;4.97;;;15.20;99.90;;;;;;5283555;27;20013;-71
2024/05/01 02:52:50;;;;;;;15.95;5.38;;;15.20;99.90;;;;;;5284123;27;20031;-73
2024/05/01 02:55:16;;;;;;;17.15;6.10;;;15.10;99.90;;;;;;5314074;27;19994;-74
2024/05/01 02:57:44;;;;;;;14.77;6.55;;;15.20;99.90;;;;;;5317462;27;20425;-74
2024/05/01 03:00:13;;;;;;;15.18;6.82;;;15.20;99.90;;;;;;5315972;27;19994;-73
2024/05/01 03:02:39;;;;;;;17.85;6.57;;;15.20;99.90;;;;;;5316446;27;20012;-73
2024/05/01 03:05:05;;;;;;;17.67;5.57;;;15.20;99.90;;;;;;5317957;27;20001;-73
2024/05/01 03:07:31;;;;;;;13.18;5.07;;;15.30;99.90;;;;;;5345089;26;20012;-72
2024/05/01 03:09:59;;;;;;;14.38;6.38;;;15.40;99.90;;;;;;5320033;27;20393;-72
2024/05/01 03:12:29;;;;;;;16.02;6.10;;;15.60;99.90;;;;;;5325172;27;20024;-73
2024/05/01 03:14:54;;;;;;;25.67;6.72;;;15.60;99.90;;;;;;5315868;27;20005;-73
2024/05/01 03:17:20;;;;;;;17.30;6.32;;;15.50;99.90;;;;;;5318296;27;20232;-73
2024/05/01 03:19:48;;;;;;;14.73;5.53;;;15.60;99.90;;;;;;5325375;27;19993;-73
2024/05/01 03:22:13;;;;;;;12.63;5.97;;;15.40;99.90;;;;;;5284046;27;20002;-81
2024/05/01 03:24:39;;;;;;;16.55;6.35;;;15.40;99.90;;;;;;5315079;27;19998;-77
2024/05/01 03:27:05;;;;;;;12.63;6.40;;;15.30;99.90;;;;;;5317432;27;20002;-72
2024/05/01 03:29:30;;;;;;;11.68;6.47;;;15.30;99.90;;;;;;5316408;27;19998;-72
2024/05/01 03:31:56;;;;;;;19.13;8.05;;;15.30;99.90;;;;;;5315827;27;20002;-73
2024/05/01 03:34:22;;;;;;;20.48;7.60;;;15.30;99.90;;;;;;5315929;27;20005;-74
2024/05/01 03:36:50;;;;;;;22.95;7.70;;;15.20;99.90;;;;;;5316141;27;20457;-74
2024/05/01 03:39:15;;;;;;;18.15;7.95;;;15.20;99.90;;;;;;5313181;27;20453;-72
2024/05/01 03:41:41;;;;;;;24.70;8.10;;;15.10;99.90;;;;;;5313244;27;20061;-73
2024/05/01 03:44:07;;;;;;;19.25;7.65;;;15.20;99.90;;;;;;5313321;27;20006;-70
2024/05/01 03:46:36;;;;;;;17.92;8.05;;;15.30;99.90;;;;;;5320953;27;20009;-79
2024/05/01 03:49:02;;;;;;;24.27;8.27;;;15.30;99.90;;;;;;5323472;27;20026;-73
2024/05/01 03:51:28;;;;;;;21.63;7.95;;;15.30;99.90;;;;;;5314632;27;20010;-73
2024/05/01 03:53:54;;;;;;;18.42;7.07;;;15.30;99.90;;;;;;5308959;27;20407;-72
2024/05/01 03:56:23;;;;;;;21.90;9.30;;;15.30;99.90;;;;;;5310448;27;19994;-73
2024/05/01 03:58:49;;;;;;;15.23;7.43;;;15.40;99.90;;;;;;5287600;27;20013;-73
2024/05/01 04:01:15;;;;;;;16.35;7.28;;;15.40;99.90;;;;;;5314597;27;20333;-72
2024/05/01 04:03:43;;;;;;;21.13;8.30;;;15.40;99.90;;;;;;5286506;27;19993;-73
2024/05/01 04:06:09;;;;;;;24.38;8.27;;;15.40;99.90;;;;;;5313875;27;20068;-72
2024/05/01 04:08:39;;;;;;;16.25;7.72;;;15.50;99.90;;;;;;5313328;27;20001;-72
2024/05/01 04:11:05;;;;;;;17.95;8.13;;;15.50;99.90;;;;;;5320980;27;19997;-73
2024/05/01 04:13:31;;;;;;;18.13;7.85;;;15.40;99.90;;;;;;5345363;26;20020;-74
2024/05/01 04:15:56;;;;;;;22.58;8.05;;;15.50;99.90;;;;;;5313985;27;20346;-71
2024/05/01 04:18:28;;;;;;;18.77;7.53;;;15.50;99.90;;;;;;5313300;27;20005;-72
2024/05/01 04:20:53;;;;;;;23.65;8.00;;;15.40;99.90;;;;;;5312384;27;20002;-72
2024/05/01 04:23:19;;;;;;;17.35;7.82;;;15.20;99.90;;;;;;5312507;27;20408;-71
2024/05/01 04:25:44;;;;;;;26.98;7.18;;;15.00;99.90;;;;;;5313202;27;20001;-73
2024/05/01 04:28:10;;;;;;;16.52;7.65;;;14.90;99.90;;;;;;5283551;27;19998;-72
2024/05/01 04:30:39;;;;;;;14.98;7.45;;;14.80;99.90;;;;;;5313636;27;20002;-72
2024/05/01 04:33:07;;;;;;;16.95;8.02;;;14.80;99.90;;;;;;5315595;27;20013;-73
2024/05/01 04:35:32;;;;;;;22.60;8.13;;;14.80;99.90;;;;;;5317466;27;19997;-72
2024/05/01 04:37:58;;;;;;;12.75;7.28;;;14.90;99.90;;;;;;5288015;27;20012;-73
2024/05/01 04:40:24;;;;;;;16.55;7.93;;;14.90;99.90;;;;;;5282773;27;20009;-72
2024/05/01 04:42:49;;;;;;;13.60;7.20;;;15.00;99.90;;;;;;5282270;27;20001;-72
2024/05/01 04:45:17;;;;;;;21.20;7.07;;;15.00;99.90;;;;;;5312374;27;20042;-72
2024/05/01 04:47:42;;;;;;;17.88;7.85;;;15.10;99.90;;;;;;5310225;26;20001;-76
2024/05/01 04:50:10;;;;;;;15.27;7.53;;;15.20;99.90;;;;;;5314925;27;20456;-73
2024/05/01 04:52:36;;;;;;;14.52;6.65;;;15.20;99.90;;;;;;5279304;27;20100;-77
2024/05/01 04:55:04;;;;;;;16.80;6.88;;;15.20;99.90;;;;;;5281059;27;20098;-74
2024/05/01 04:57:30;;;;;;;17.85;6.97;;;15.20;99.90;;;;;;5280516;27;20073;-71
2024/05/01 04:59:58;;;;;;;14.82;6.88;;;15.30;99.90;;;;;;5278279;27;20026;-73
2024/05/01 05:02:24;;;;;;;15.07;6.90;;;15.20;99.90;;;;;;5312844;27;20084;-72
2024/05/01 05:04:50;;;;;;;23.67;6.88;;;15.00;99.90;;;;;;5283886;27;20073;-72
2024/05/01 05:07:18;;;;;;;15.43;6.55;;;15.00;99.90;;;;;;5311927;27;20002;-71
2024/05/01 05:09:46;;;;;;;19.15;7.40;;;15.00;99.90;;;;;;5311675;27;19997;-72
2024/05/01 05:12:15;;;;;;;16.83;7.15;;;15.00;99.90;;;;;;5283986;27;20006;-72
2024/05/01 05:14:40;;;;;;;15.23;6.72;;;15.00;99.90;;;;;;5286230;27;20382;-71
2024/05/01 05:17:06;;;;;;;14.38;6.72;;;15.00;99.90;;;;;;5318708;27;20099;-72
2024/05/01 05:19:32;;;;;;;16.38;6.97;;;14.90;99.90;;;;;;5319169;27;20002;-74
2024/05/01 05:21:57;;;;;;;15.70;6.57;;;14.90;99.90;;;;;;5287737;27;19998;-76
2024/05/01 05:24:23;;;;;;;18.75;6.68;;;15.10;99.90;;;;;;5316201;27;20046;-72
2024/05/01 05:26:49;;;;;;;12.55;6.15;;;15.20;99.90;;;;;;5287256;27;20001;-73
2024/05/01 05:29:14;;;;;;;13.88;5.93;;;15.30;99.90;;;;;;5318033;27;19998;-70
2024/05/01 05:31:40;;;;;;;11.45;4.53;;;15.40;99.90;;;;;;5313932;27;19998;-71
2024/05/01 05:34:07;;;;;;;14.43;5.55;;;15.60;99.90;;;;;;5317411;27;20004;-72
2024/05/01 05:36:32;;;;;;;18.02;5.13;;;15.60;99.90;;;;;;5316297;27;20008;-73
2024/05/01 05:38:59;;;;;;;12.82;5.03;;;15.60;99.90;;;;;;5318137;27;19998;-75
2024/05/01 05:41:25;;;;;;;15.57;4.85;;;15.70;99.90;;;;;;5285551;27;20025;-73
2024/05/01 05:43:50;;;;;;;12.10;4.90;;;15.80;99.90;;;;;;5284434;27;20463;-72
2024/05/01 05:46:16;;;;;;;10.98;4.85;;;15.90;99.90;;;;;;5314602;27;20357;-73
2024/05/01 05:48:42;;;;;;;8.52;4.18;;;16.00;99.90;;;;;;5314193;27;20453;-74
2024/05/01 05:51:10;;;;;;;16.70;5.63;;;16.00;99.90;;;;;;5315064;27;20449;-74
2024/05/01 05:53:39;;;;;;;15.40;4.82;;;16.10;99.90;;;;;;5282785;27;20001;-72
2024/05/01 05:56:05;;;;;;;11.40;4.38;;;16.20;99.90;;;;;;5323933;27;20008;-72
2024/05/01 05:58:31;;;;;;;12.10;4.97;;;16.10;99.90;;;;;;5322787;27;20008;-76
2024/05/01 06:00:56;;;;;;;10.93;4.63;;;16.20;99.90;;;;;;5289090;27;20437;-72
2024/05/01 06:03:22;;;;;;;13.40;4.55;;;16.30;99.90;;;;;;5288153;27;19998;-76
2024/05/01 06:05:48;;;;;;;14.35;5.43;;;16.30;99.90;;;;;;5321987;27;19997;-73
2024/05/01 06:08:13;;;;;;;12.40;4.57;;;16.40;99.90;;;;;;5324389;27;20013;-73
2024/05/01 06:10:39;;;;;;;9.77;4.65;;;16.40;99.90;;;;;;5285070;27;20001;-72
2024/05/01 06:13:11;;;;;;;21.88;5.05;;;16.30;99.90;;;;;;5314644;27;20107;-71
2024/05/01 06:15:38;;;;;;;14.70;4.57;;;16.30;99.90;;;;;;5314285;27;20422;-73
2024/05/01 06:18:07;;;;;;;13.07;4.43;;;16.20;99.90;;;;;;5314424;27;19997;-71
2024/05/01 06:20:32;;;;;;;14.60;6.07;;;16.20;99.90;;;;;;5283705;27;20001;-73
2024/05/01 06:22:58;;;;;;;15.40;4.65;;;16.50;99.90;;;;;;5318971;26;20112;-73
2024/05/01 06:25:23;;;;;;;14.05;5.00;;;16.60;99.90;;;;;;5314160;27;20009;-73
2024/05/01 06:27:49;;;;;;;13.25;4.75;;;16.50;99.90;;;;;;5312218;26;20002;-72
2024/05/01 06:30:15;;;;;;;6.82;4.32;;;16.50;99.90;;;;;;5316056;27;20318;-73
2024/05/01 06:32:41;;;;;;;13.65;4.63;;;16.50;99.90;;;;;;5287131;27;20001;-66
2024/05/01 06:35:06;;;;;;;10.38;4.47;;;16.40;99.90;;;;;;5321772;27;20017;-67
2024/05/01 06:37:32;;;;;;;11.45;4.70;;;16.40;99.90;;;;;;5302519;27;20014;-69
2024/05/01 06:39:57;;;;;;;15.85;4.35;;;16.50;99.90;;;;;;5282521;27;19998;-73
2024/05/01 06:42:23;;;;;;;12.18;4.47;;;16.50;99.90;;;;;;5287977;27;20073;-69
2024/05/01 06:44:49;;;;;;;10.77;4.97;;;16.50;99.90;;;;;;5280202;27;20413;-67
2024/05/01 06:47:14;;;;;;;12.55;4.00;;;16.60;99.90;;;;;;5288048;27;20288;-67
2024/05/01 06:49:40;;;;;;;13.55;4.50;;;16.70;97.30;;;;;;5295009;26;20002;-66
2024/05/01 06:52:08;;;;;;;14.02;3.72;;;16.80;94.60;;;;;;5300984;27;20074;-69
2024/05/01 06:54:34;;;;;;;15.52;4.32;;;16.90;89.70;;;;;;5263424;27;20002;-66
2024/05/01 06:56:59;;;;;;;13.98;4.90;;;17.00;77.80;;;;;;5280190;27;20006;-65
2024/05/01 06:59:25;;;;;;;12.05;3.67;;;16.90;78.60;;;;;;5281602;27;20010;-67
2024/05/01 07:01:51;;;;;;;10.70;3.63;;;16.90;81.90;;;;;;5281996;27;20113;-68
2024/05/01 07:04:16;;;;;;;17.92;4.05;;;16.80;91.10;;;;;;5283219;27;20341;-68
2024/05/01 07:06:43;;;;;;;15.50;4.15;;;16.80;93.90;;;;;;5305752;27;20357;-68
2024/05/01 07:09:09;;;;;;;14.82;4.88;;;16.80;92.30;;;;;;5298443;27;20001;-67
2024/05/01 07:11:35;;;;;;;13.07;3.97;;;17.00;92.00;;;;;;5302746;27;20454;-68
2024/05/01 07:14:00;;;;;;;8.18;3.28;;;17.10;91.60;;;;;;5276727;27;20001;-69
2024/05/01 07:16:26;;;;;;;12.45;3.72;;;17.30;92.40;;;;;;5316037;27;20001;-70
2024/05/01 07:18:52;;;;;;;10.38;3.72;;;17.50;91.10;;;;;;5304289;26;20334;-69
2024/05/01 07:21:21;;;;;;;12.30;4.00;;;17.70;73.50;;;;;;5306999;27;20041;-67
2024/05/01 07:23:46;;;;;;;12.20;3.33;;;17.80;1.00;;;;;;5290732;27;20029;-68
2024/05/01 07:26:12;;;;;;;8.63;3.50;;;18.00;1.00;;;;;;5290471;27;19997;-69
2024/05/01 07:28:38;;;;;;;12.55;3.58;;;18.10;1.00;;;;;;5293853;27;20002;-69
2024/05/01 07:31:05;;;;;;;15.48;4.07;;;18.00;1.00;;;;;;5285714;27;20012;-67
2024/05/01 07:33:34;;;;;;;11.77;3.80;;;18.10;1.00;;;;;;5225524;27;1017649;-68
2024/05/01 07:36:00;;;;;;;10.63;3.63;;;18.00;1.00;;;;;;5323556;26;20012;-68
2024/05/01 07:38:25;;;;;;;18.02;4.13;;;18.00;1.00;;;;;;5289994;27;20006;-69
2024/05/01 07:40:51;;;;;;;13.13;3.55;;;18.00;1.00;;;;;;5277226;27;20001;-67
2024/05/01 07:43:17;;;;;;;12.13;3.60;;;18.10;1.00;;;;;;5293856;27;19998;-67
2024/05/01 07:45:46;;;;;;;13.32;3.90;;;18.10;1.00;;;;;;5304249;27;20038;-69
2024/05/01 07:48:12;;;;;;;14.45;4.78;;;18.20;1.00;;;;;;5288001;27;20001;-70
2024/05/01 07:50:42;;;;;;;15.90;3.58;;;18.30;1.00;;;;;;5319120;27;20008;-69
2024/05/01 07:53:11;;;;;;;10.02;3.95;;;18.30;1.00;;;;;;5285955;27;20063;-69
2024/05/01 07:55:41;;;;;;;15.45;3.60;;;18.30;1.00;;;;;;5312083;27;20452;-67
2024/05/01 07:58:10;;;;;;;11.60;3.30;;;18.50;99.90;;;;;;5311372;27;20341;-67
2024/05/01 08:00:36;;;;;;;12.40;3.90;;;18.60;99.90;;;;;;5313955;27;20011;-68
2024/05/01 08:03:01;;;;;;;13.80;3.50;;;18.80;99.90;;;;;;5314062;27;20001;-67
2024/05/01 08:05:27;;;;;;;14.40;4.00;;;18.70;99.90;;;;;;5309038;27;19998;-67
2024/05/01 08:07:53;;;;;;;15.57;4.13;;;18.80;99.90;;;;;;5285837;27;20406;-67
2024/05/01 08:10:18;;;;;;;10.73;4.00;;;18.60;99.90;;;;;;5314439;27;20429;-66
2024/05/01 08:12:44;;;;;;;19.83;4.93;;;18.50;99.90;;;;;;5317843;27;20006;-68
2024/05/01 08:15:10;;;;;;;12.77;3.85;;;18.60;99.90;;;;;;5289421;27;20456;-70
2024/05/01 08:17:35;;;;;;;16.90;3.38;;;18.70;99.90;;;;;;5283984;27;20445;-67
2024/05/01 08:20:01;;;;;;;8.27;3.15;;;18.80;99.90;;;;;;5318867;27;20016;-68
2024/05/01 08:22:27;;;;;;;12.32;4.05;;;18.70;99.90;;;;;;5313476;27;20333;-67
2024/05/01 08:24:52;;;;;;;11.60;3.95;;;18.70;99.90;;;;;;5309932;27;20074;-66
2024/05/01 08:27:18;;;;;;;16.58;4.65;;;18.70;99.90;;;;;;5319872;27;20084;-67
2024/05/01 08:29:44;;;;;;;11.32;3.53;;;18.90;1.00;;;;;;5313871;27;20437;-67
2024/05/01 08:32:09;;;;;;;14.65;3.83;;;18.90;1.00;;;;;;5315416;27;20014;-68
2024/05/01 08:34:35;;;;;;;15.35;4.38;;;18.80;95.70;;;;;;5281976;27;20002;-68
2024/05/01 08:37:01;;;;;;;11.77;3.45;;;18.90;99.90;;;;;;5313631;27;20002;-71
2024/05/01 08:39:26;;;;;;;14.45;4.22;;;19.10;10.60;;;;;;5313368;27;20405;-66
2024/05/01 08:41:56;;;;;;;13.10;3.95;;;19.30;1.00;;;;;;5312114;27;20006;-67
2024/05/01 08:44:25;;;;;;;12.68;3.85;;;19.40;1.00;;;;;;5279854;27;19994;-64
2024/05/01 08:46:54;;;;;;;11.40;4.53;;;19.40;99.90;;;;;;5285407;27;20080;-67
2024/05/01 08:49:19;;;;;;;9.27;3.88;;;19.30;99.90;;;;;;5296871;26;20013;-66
2024/05/01 08:51:49;;;;;;;17.35;4.78;;;19.20;99.90;;;;;;5311766;27;19997;-68
2024/05/01 08:54:17;;;;;;;17.98;4.15;;;19.30;1.00;;;;;;5299524;27;19998;-72
2024/05/01 08:56:47;;;;;;;13.52;4.65;;;19.40;99.90;;;;;;5289182;27;19999;-72
2024/05/01 08:59:16;;;;;;;11.98;4.70;;;19.50;1.00;;;;;;5304231;27;20016;-67
2024/05/01 09:01:44;;;;;;;19.92;5.55;;;19.50;1.00;;;;;;5308900;26;20002;-65
2024/05/01 09:04:13;;;;;;;17.05;4.82;;;19.60;99.90;;;;;;5282659;27;20029;-65
2024/05/01 09:06:48;;;;;;;14.77;4.55;;;19.50;99.90;;;;;;5301835;27;20105;-66
2024/05/01 09:09:15;;;;;;;11.45;4.95;;;19.60;99.90;;;;;;5275385;27;20018;-68
2024/05/01 09:11:44;;;;;;;12.63;4.03;;;19.60;99.90;;;;;;5286279;27;20246;-66
2024/05/01 09:14:10;;;;;;;12.15;4.28;;;19.70;99.90;;;;;;5286249;27;19998;-67
2024/05/01 09:16:35;;;;;;;15.45;4.43;;;19.70;1.00;;;;;;5271896;27;20333;-71
2024/05/01 09:19:02;;;;;;;12.27;3.72;;;19.70;1.00;;;;;;5289286;27;20430;-71
2024/05/01 09:21:39;;;;;;;17.10;3.40;;;19.80;44.40;;;;;;5327446;27;20027;-68
2024/05/01 09:24:06;;;;;;;12.80;4.22;;;19.90;1.00;;;;;;5319251;27;20042;-68
2024/05/01 09:26:32;;;;;;;13.65;3.80;;;19.80;99.90;;;;;;5315391;27;20289;-70
2024/05/01 09:29:00;;;;;;;15.02;4.43;;;19.80;99.90;;;;;;5284557;27;20013;-69
2024/05/01 09:31:28;;;;;;;14.02;3.67;;;19.90;99.90;;;;;;5314866;27;19997;-69
2024/05/01 09:33:56;;;;;;;9.48;3.25;;;19.80;1.00;;;;;;5313437;27;20033;-71
2024/05/01 09:36:22;;;;;;;13.70;3.67;;;19.90;99.90;;;;;;5275048;27;20002;-70
2024/05/01 09:38:54;;;;;;;14.88;3.33;;;20.20;99.90;;;;;;5251189;27;20017;-70
2024/05/01 09:41:23;;;;;;;17.95;3.65;;;20.40;1.00;;;;;;5281630;27;20469;-68
2024/05/01 09:43:58;;;;;;;9.93;3.05;;;20.20;8.40;;;;;;5308343;27;20481;-68
2024/05/01 09:46:30;;;;;;;12.20;3.45;;;20.20;93.20;;;;;;5304313;27;20011;-75
2024/05/01 09:49:01;;;;;;;7.63;2.40;;;20.30;1.00;;;;;;5274224;27;20001;-68
2024/05/01 09:51:29;;;;;;;11.25;3.25;;;20.30;99.90;;;;;;5320943;27;20012;-70
2024/05/01 09:53:56;;;;;;;10.50;3.03;;;20.30;1.00;;;;;;5327852;26;19998;-70
2024/05/01 09:56:26;;;;;;;13.90;2.60;;;20.40;99.90;;;;;;5349670;26;19993;-69
2024/05/01 09:58:54;;;;;;;12.00;3.33;;;20.50;26.80;;;;;;5323262;26;20020;-73
2024/05/01 10:01:23;;;;;;;11.35;3.28;;;20.70;1.00;;;;;;5262785;27;20013;-78
2024/05/01 10:03:54;;;;;;;14.90;3.08;;;20.70;1.00;;;;;;5307009;27;20020;-68
2024/05/01 10:06:21;;;;;;;10.80;2.95;;;20.70;1.00;;;;;;5299540;27;20034;-68
2024/05/01 10:08:47;;;;;;;12.27;3.72;;;20.70;99.90;;;;;;5313924;26;20013;-68
2024/05/01 10:11:15;;;;;;;12.52;3.65;;;20.70;1.00;;;;;;5311224;27;20006;-68
2024/05/01 10:13:49;;;;;;;16.88;3.80;;;20.80;99.90;;;;;;5301526;27;20024;-70
2024/05/01 10:16:15;;;;;;;9.48;3.40;;;21.00;1.00;;;;;;5304565;27;20017;-71
2024/05/01 10:18:51;;;;;;;9.57;3.72;;;20.90;39.20;;;;;;5283055;27;20121;-70
2024/05/01 10:21:19;;;;;;;13.55;3.70;;;21.00;99.90;;;;;;5313734;27;20013;-71
2024/05/01 10:23:48;;;;;;;9.82;3.28;;;21.00;99.90;;;;;;5314067;27;20080;-71
2024/05/01 10:26:14;;;;;;;11.60;3.80;;;21.10;99.90;;;;;;5313331;27;20336;-70
2024/05/01 10:28:47;;;;;;;13.13;3.90;;;21.10;99.90;;;;;;5313440;27;20009;-69
2024/05/01 10:31:13;;;;;;;14.93;4.35;;;21.10;1.00;;;;;;5316238;27;20033;-69
2024/05/01 10:33:46;;;;;;;11.48;4.32;;;21.20;14.00;;;;;;5255439;27;20021;-70
2024/05/01 10:36:20;;;;;;;14.68;4.22;;;21.20;99.90;;;;;;5247669;27;20086;-70
2024/05/01 10:38:54;;;;;;;12.60;4.55;;;21.20;99.90;;;;;;5273921;27;20086;-70
2024/05/01 10:41:31;;;;;;;17.17;5.57;;;21.30;99.90;;;;;;5253610;27;19999;-70
2024/05/01 10:43:58;;;;;;;15.52;5.40;;;21.50;99.90;;;;;;5248857;27;20070;-73
2024/05/01 10:46:26;;;;;;;19.13;4.97;;;21.60;99.90;;;;;;5249005;27;19999;-70
2024/05/01 10:48:55;;;;;;;12.52;4.50;;;21.40;1.00;;;;;;5251718;27;20050;-71
2024/05/01 10:51:22;;;;;;;17.17;4.85;;;21.40;64.50;;;;;;5253047;27;20017;-69
2024/05/01 10:53:48;;;;;;;18.13;5.85;;;21.50;67.70;;;;;;5276468;27;20526;-70
2024/05/01 10:56:14;;;;;;;19.58;6.18;;;21.70;1.00;;;;;;5246478;27;20015;-70
2024/05/01 10:58:41;;;;;;;15.73;6.05;;;21.90;99.90;;;;;;5248880;27;20010;-71
2024/05/01 11:01:07;;;;;;;19.98;6.55;;;21.90;99.90;;;;;;5247871;27;20032;-69
2024/05/01 11:03:34;;;;;;;12.20;5.63;;;21.80;99.90;;;;;;5247276;27;20003;-72
2024/05/01 11:06:00;;;;;;;14.15;6.28;;;21.80;99.90;;;;;;5247381;27;20021;-71
2024/05/01 11:08:26;;;;;;;13.98;6.45;;;21.80;1.00;;;;;;5258354;27;20019;-72
2024/05/01 11:10:53;;;;;;;16.17;6.55;;;21.90;1.00;;;;;;5248555;27;20067;-70
2024/05/01 11:13:23;;;;;;;12.88;6.75;;;22.00;99.90;;;;;;5253573;27;20013;-69
2024/05/01 11:15:49;;;;;;;19.63;8.27;;;22.20;99.90;;;;;;5247951;27;20003;-69
2024/05/01 11:18:15;;;;;;;15.20;7.97;;;22.20;99.90;;;;;;5248293;27;20014;-72
2024/05/01 11:20:43;;;;;;;13.63;8.05;;;22.20;99.90;;;;;;5248669;27;20010;-73
2024/05/01 11:23:09;;;;;;;16.50;8.02;;;22.30;1.00;;;;;;5247540;27;20031;-72
2024/05/01 11:25:37;;;;;;;17.02;8.93;;;22.30;93.80;;;;;;5273650;27;20010;-72
2024/05/01 11:28:03;;;;;;;22.88;9.27;;;22.10;99.90;;;;;;5273208;27;20069;-72
2024/05/01 11:30:28;;;;;;;23.02;10.00;;;22.20;99.90;;;;;;5249332;27;20003;-69
2024/05/01 11:32:56;;;;;;;17.13;10.07;;;22.30;99.90;;;;;;5273229;27;20006;-72
2024/05/01 11:35:22;;;;;;;19.73;10.48;;;22.40;99.90;;;;;;5283557;27;20057;-71
2024/05/01 11:37:48;;;;;;;20.17;10.18;;;22.50;1.00;;;;;;5246359;27;20422;-72
2024/05/01 11:40:17;;;;;;;22.98;11.90;;;22.60;99.90;;;;;;5252583;27;20011;-71
2024/05/01 11:42:45;;;;;;;18.13;10.95;;;22.70;49.40;;;;;;5249381;27;20031;-76
2024/05/01 11:45:10;;;;;;;16.95;11.38;;;22.70;99.90;;;;;;5247126;27;20429;-70
2024/05/01 11:47:36;;;;;;;15.80;11.63;;;22.70;21.50;;;;;;5243199;27;19999;-70
2024/05/01 11:50:02;;;;;;;19.48;10.88;;;22.70;99.90;;;;;;5241150;27;20073;-71
2024/05/01 11:52:28;;;;;;;18.35;11.50;;;22.70;99.90;;;;;;5243115;27;20003;-69
2024/05/01 11:54:53;;;;;;;24.98;11.38;;;22.90;99.90;;;;;;5235424;27;20006;-69
2024/05/01 11:57:19;;;;;;;21.58;11.27;;;23.00;1.00;;;;;;5243941;27;20084;-70
2024/05/01 11:59:45;;;;;;;18.05;10.50;;;23.00;99.90;;;;;;5243946;27;20003;-72
2024/05/01 12:02:11;;;;;;;17.27;10.65;;;23.10;99.90;;;;;;5246958;27;20003;-71
2024/05/01 12:04:36;;;;;;;23.83;10.10;;;23.20;99.90;;;;;;5240098;27;20125;-69
2024/05/01 12:07:13;;;;;;;21.15;10.88;;;23.20;1.00;;;;;;5244693;27;19998;-71
2024/05/01 12:09:42;;;;;;;20.38;10.18;;;23.30;1.00;;;;;;5221683;27;19999;-71
2024/05/01 12:12:10;;;;;;;18.10;10.75;;;23.30;1.00;;;;;;5241826;27;20061;-70
2024/05/01 12:14:36;;;;;;;19.60;9.82;;;23.40;99.90;;;;;;5213124;27;20084;-70
2024/05/01 12:17:02;;;;;;;20.30;9.60;;;23.50;99.90;;;;;;5211497;27;20086;-69
2024/05/01 12:19:30;;;;;;;19.67;10.07;;;23.50;16.40;;;;;;5209577;27;20012;-69
2024/05/01 12:21:57;;;;;;;22.20;9.85;;;23.40;1.00;;;;;;5213773;27;20447;-70
2024/05/01 12:24:28;;;;;;;21.88;9.70;;;23.40;99.90;;;;;;5243866;27;20003;-71
2024/05/01 12:26:57;;;;;;;18.77;8.45;;;23.60;9.00;;;;;;5255063;27;20003;-70
2024/05/01 12:29:43;;;;;;;19.45;7.63;;;23.50;1.00;;;;;;5250666;27;20343;-71
2024/05/01 12:32:34;;;;;;;16.10;7.97;;;23.60;99.90;;;;;;5274989;27;20012;-70
2024/05/01 12:35:00;;;;;;;19.55;8.27;;;23.60;99.90;;;;;;5317511;27;20088;-69
2024/05/01 12:37:46;;;;;;;23.90;9.57;;;23.70;99.90;;;;;;5304977;27;20006;-71